sensor_id;sensor_type;location;lat;lon;timestamp;P1;P2;P0
67892;PMS7003;54688;52.376;16.744;2023-09-18T00:01:17;25;22;
67892;PMS7003;54688;52.376;16.744;2023-09-18T00:04:19;26;21;
67892;PMS7003;54688;52.376;16.744;2023-09-18T00:07:22;21;19;
67892;PMS7003;54688;52.376;16.744;2023-09-18T00:10:25;26;23;
67892;PMS7003;54688;52.376;16.744;2023-09-18T00:13:28;23;22;
67892;PMS7003;54688;52.376;16.744;2023-09-18T00:16:30;27;22;
67892;PMS7003;54688;52.376;16.744;2023-09-18T00:19:32;28;26;
67892;PMS7003;54688;52.376;16.744;2023-09-18T00:22:34;20;19;
67892;PMS7003;54688;52.376;16.744;2023-09-18T00:25:37;28;26;
67892;PMS7003;54688;52.376;16.744;2023-09-18T00:28:39;24;22;
67892;PMS7003;54688;52.376;16.744;2023-09-18T00:31:40;22;22;
67892;PMS7003;54688;52.376;16.744;2023-09-18T00:34:42;21;19;
67892;PMS7003;54688;52.376;16.744;2023-09-18T00:37:44;22;22;
67892;PMS7003;54688;52.376;16.744;2023-09-18T00:40:46;20;20;
67892;PMS7003;54688;52.376;16.744;2023-09-18T00:43:48;22;21;
67892;PMS7003;54688;52.376;16.744;2023-09-18T00:46:51;29;24;
67892;PMS7003;54688;52.376;16.744;2023-09-18T00:49:53;22;21;
67892;PMS7003;54688;52.376;16.744;2023-09-18T00:52:55;24;21;
67892;PMS7003;54688;52.376;16.744;2023-09-18T00:55:58;26;26;
67892;PMS7003;54688;52.376;16.744;2023-09-18T00:59:02;34;28;
67892;PMS7003;54688;52.376;16.744;2023-09-18T01:02:05;27;26;
67892;PMS7003;54688;52.376;16.744;2023-09-18T01:05:07;23;22;
67892;PMS7003;54688;52.376;16.744;2023-09-18T01:08:09;26;24;
67892;PMS7003;54688;52.376;16.744;2023-09-18T01:11:15;33;24;
67892;PMS7003;54688;52.376;16.744;2023-09-18T01:14:25;23;23;
67892;PMS7003;54688;52.376;16.744;2023-09-18T01:17:30;27;24;
67892;PMS7003;54688;52.376;16.744;2023-09-18T01:20:33;28;26;
67892;PMS7003;54688;52.376;16.744;2023-09-18T01:23:35;29;26;
67892;PMS7003;54688;52.376;16.744;2023-09-18T01:26:37;29;25;
67892;PMS7003;54688;52.376;16.744;2023-09-18T01:29:39;31;30;
67892;PMS7003;54688;52.376;16.744;2023-09-18T01:32:42;26;25;
67892;PMS7003;54688;52.376;16.744;2023-09-18T01:35:45;24;23;
67892;PMS7003;54688;52.376;16.744;2023-09-18T01:38:49;29;25;
67892;PMS7003;54688;52.376;16.744;2023-09-18T01:41:52;27;26;
67892;PMS7003;54688;52.376;16.744;2023-09-18T01:44:55;30;28;
67892;PMS7003;54688;52.376;16.744;2023-09-18T01:47:57;26;24;
67892;PMS7003;54688;52.376;16.744;2023-09-18T01:50:58;31;28;
67892;PMS7003;54688;52.376;16.744;2023-09-18T01:54:01;31;29;
67892;PMS7003;54688;52.376;16.744;2023-09-18T01:57:04;26;24;
67892;PMS7003;54688;52.376;16.744;2023-09-18T02:00:07;28;24;
67892;PMS7003;54688;52.376;16.744;2023-09-18T02:03:09;31;27;
67892;PMS7003;54688;52.376;16.744;2023-09-18T02:06:11;28;25;
67892;PMS7003;54688;52.376;16.744;2023-09-18T02:09:13;27;27;
67892;PMS7003;54688;52.376;16.744;2023-09-18T02:12:16;25;22;
67892;PMS7003;54688;52.376;16.744;2023-09-18T02:15:18;28;27;
67892;PMS7003;54688;52.376;16.744;2023-09-18T02:18:20;30;27;
67892;PMS7003;54688;52.376;16.744;2023-09-18T02:21:22;31;30;
67892;PMS7003;54688;52.376;16.744;2023-09-18T02:24:24;33;31;
67892;PMS7003;54688;52.376;16.744;2023-09-18T02:27:26;37;32;
67892;PMS7003;54688;52.376;16.744;2023-09-18T02:30:29;33;29;
67892;PMS7003;54688;52.376;16.744;2023-09-18T02:33:31;35;30;
67892;PMS7003;54688;52.376;16.744;2023-09-18T02:36:33;43;35;
67892;PMS7003;54688;52.376;16.744;2023-09-18T02:39:35;32;29;
67892;PMS7003;54688;52.376;16.744;2023-09-18T02:42:37;33;31;
67892;PMS7003;54688;52.376;16.744;2023-09-18T02:45:39;40;32;
67892;PMS7003;54688;52.376;16.744;2023-09-18T02:48:42;36;32;
67892;PMS7003;54688;52.376;16.744;2023-09-18T02:51:44;33;29;
67892;PMS7003;54688;52.376;16.744;2023-09-18T02:54:46;44;36;
67892;PMS7003;54688;52.376;16.744;2023-09-18T02:57:48;41;34;
67892;PMS7003;54688;52.376;16.744;2023-09-18T03:00:50;37;32;
67892;PMS7003;54688;52.376;16.744;2023-09-18T03:03:52;35;32;
67892;PMS7003;54688;52.376;16.744;2023-09-18T03:06:54;39;33;
67892;PMS7003;54688;52.376;16.744;2023-09-18T03:09:56;37;32;
67892;PMS7003;54688;52.376;16.744;2023-09-18T03:12:58;39;33;
67892;PMS7003;54688;52.376;16.744;2023-09-18T03:16:00;32;30;
67892;PMS7003;54688;52.376;16.744;2023-09-18T03:19:02;36;32;
67892;PMS7003;54688;52.376;16.744;2023-09-18T03:22:04;42;35;
67892;PMS7003;54688;52.376;16.744;2023-09-18T03:25:07;32;31;
67892;PMS7003;54688;52.376;16.744;2023-09-18T03:28:08;37;32;
67892;PMS7003;54688;52.376;16.744;2023-09-18T03:31:11;37;32;
67892;PMS7003;54688;52.376;16.744;2023-09-18T03:34:13;32;31;
67892;PMS7003;54688;52.376;16.744;2023-09-18T03:37:16;34;32;
67892;PMS7003;54688;52.376;16.744;2023-09-18T03:40:18;38;33;
67892;PMS7003;54688;52.376;16.744;2023-09-18T03:43:20;36;30;
67892;PMS7003;54688;52.376;16.744;2023-09-18T03:46:23;29;26;
67892;PMS7003;54688;52.376;16.744;2023-09-18T03:49:27;35;31;
67892;PMS7003;54688;52.376;16.744;2023-09-18T03:52:29;38;33;
67892;PMS7003;54688;52.376;16.744;2023-09-18T03:55:31;41;35;
67892;PMS7003;54688;52.376;16.744;2023-09-18T03:58:33;36;33;
67892;PMS7003;54688;52.376;16.744;2023-09-18T04:01:36;45;33;
67892;PMS7003;54688;52.376;16.744;2023-09-18T04:04:37;37;32;
67892;PMS7003;54688;52.376;16.744;2023-09-18T04:07:40;43;34;
67892;PMS7003;54688;52.376;16.744;2023-09-18T04:10:42;36;33;
67892;PMS7003;54688;52.376;16.744;2023-09-18T04:13:44;33;30;
67892;PMS7003;54688;52.376;16.744;2023-09-18T04:16:47;33;32;
67892;PMS7003;54688;52.376;16.744;2023-09-18T04:19:49;40;35;
67892;PMS7003;54688;52.376;16.744;2023-09-18T04:23:18;38;32;
67892;PMS7003;54688;52.376;16.744;2023-09-18T04:26:20;41;34;
67892;PMS7003;54688;52.376;16.744;2023-09-18T04:29:23;37;33;
67892;PMS7003;54688;52.376;16.744;2023-09-18T04:32:25;39;34;
67892;PMS7003;54688;52.376;16.744;2023-09-18T04:35:27;35;32;
67892;PMS7003;54688;52.376;16.744;2023-09-18T04:38:29;49;39;
67892;PMS7003;54688;52.376;16.744;2023-09-18T04:41:31;42;34;
67892;PMS7003;54688;52.376;16.744;2023-09-18T04:44:33;37;33;
67892;PMS7003;54688;52.376;16.744;2023-09-18T04:47:35;41;35;
67892;PMS7003;54688;52.376;16.744;2023-09-18T04:50:37;43;35;
67892;PMS7003;54688;52.376;16.744;2023-09-18T04:53:38;46;38;
67892;PMS7003;54688;52.376;16.744;2023-09-18T04:56:41;40;34;
67892;PMS7003;54688;52.376;16.744;2023-09-18T04:59:42;49;39;
67892;PMS7003;54688;52.376;16.744;2023-09-18T05:02:44;41;35;
67892;PMS7003;54688;52.376;16.744;2023-09-18T05:05:47;44;36;
67892;PMS7003;54688;52.376;16.744;2023-09-18T05:08:49;45;38;
67892;PMS7003;54688;52.376;16.744;2023-09-18T05:11:51;36;32;
67892;PMS7003;54688;52.376;16.744;2023-09-18T05:14:53;44;36;
67892;PMS7003;54688;52.376;16.744;2023-09-18T05:17:57;39;35;
67892;PMS7003;54688;52.376;16.744;2023-09-18T05:20:59;42;35;
67892;PMS7003;54688;52.376;16.744;2023-09-18T05:24:01;42;34;
67892;PMS7003;54688;52.376;16.744;2023-09-18T05:27:04;39;33;
67892;PMS7003;54688;52.376;16.744;2023-09-18T05:30:08;45;36;
67892;PMS7003;54688;52.376;16.744;2023-09-18T05:33:10;35;32;
67892;PMS7003;54688;52.376;16.744;2023-09-18T05:36:12;45;33;
67892;PMS7003;54688;52.376;16.744;2023-09-18T05:39:14;43;35;
67892;PMS7003;54688;52.376;16.744;2023-09-18T05:42:16;38;33;
67892;PMS7003;54688;52.376;16.744;2023-09-18T05:45:19;47;38;
67892;PMS7003;54688;52.376;16.744;2023-09-18T05:48:21;46;38;
67892;PMS7003;54688;52.376;16.744;2023-09-18T05:51:24;44;37;
67892;PMS7003;54688;52.376;16.744;2023-09-18T05:54:26;38;34;
67892;PMS7003;54688;52.376;16.744;2023-09-18T05:57:30;46;37;
67892;PMS7003;54688;52.376;16.744;2023-09-18T06:00:33;41;34;
67892;PMS7003;54688;52.376;16.744;2023-09-18T06:03:34;49;37;
67892;PMS7003;54688;52.376;16.744;2023-09-18T06:06:37;44;37;
67892;PMS7003;54688;52.376;16.744;2023-09-18T06:09:39;48;39;
67892;PMS7003;54688;52.376;16.744;2023-09-18T06:12:41;44;38;
67892;PMS7003;54688;52.376;16.744;2023-09-18T06:15:43;44;35;
67892;PMS7003;54688;52.376;16.744;2023-09-18T06:18:45;40;35;
67892;PMS7003;54688;52.376;16.744;2023-09-18T06:21:46;35;32;
67892;PMS7003;54688;52.376;16.744;2023-09-18T06:24:49;41;34;
67892;PMS7003;54688;52.376;16.744;2023-09-18T06:27:50;44;36;
67892;PMS7003;54688;52.376;16.744;2023-09-18T06:30:53;44;36;
67892;PMS7003;54688;52.376;16.744;2023-09-18T06:33:54;41;35;
67892;PMS7003;54688;52.376;16.744;2023-09-18T06:36:57;37;33;
67892;PMS7003;54688;52.376;16.744;2023-09-18T06:39:59;37;33;
67892;PMS7003;54688;52.376;16.744;2023-09-18T06:43:01;38;35;
67892;PMS7003;54688;52.376;16.744;2023-09-18T06:46:03;47;36;
67892;PMS7003;54688;52.376;16.744;2023-09-18T06:49:05;41;32;
67892;PMS7003;54688;52.376;16.744;2023-09-18T06:52:07;43;33;
67892;PMS7003;54688;52.376;16.744;2023-09-18T06:55:10;45;32;
67892;PMS7003;54688;52.376;16.744;2023-09-18T06:58:12;34;31;
67892;PMS7003;54688;52.376;16.744;2023-09-18T07:01:15;34;32;
67892;PMS7003;54688;52.376;16.744;2023-09-18T07:04:17;43;35;
67892;PMS7003;54688;52.376;16.744;2023-09-18T07:07:19;35;33;
67892;PMS7003;54688;52.376;16.744;2023-09-18T07:10:21;43;34;
67892;PMS7003;54688;52.376;16.744;2023-09-18T07:13:23;38;30;
67892;PMS7003;54688;52.376;16.744;2023-09-18T07:16:25;39;34;
67892;PMS7003;54688;52.376;16.744;2023-09-18T07:19:27;36;32;
67892;PMS7003;54688;52.376;16.744;2023-09-18T07:22:29;42;34;
67892;PMS7003;54688;52.376;16.744;2023-09-18T07:25:31;37;29;
67892;PMS7003;54688;52.376;16.744;2023-09-18T07:28:34;29;28;
67892;PMS7003;54688;52.376;16.744;2023-09-18T07:31:36;32;28;
67892;PMS7003;54688;52.376;16.744;2023-09-18T07:34:38;36;32;
67892;PMS7003;54688;52.376;16.744;2023-09-18T07:37:40;32;29;
67892;PMS7003;54688;52.376;16.744;2023-09-18T07:40:42;35;27;
67892;PMS7003;54688;52.376;16.744;2023-09-18T07:43:44;32;31;
67892;PMS7003;54688;52.376;16.744;2023-09-18T07:46:46;38;32;
67892;PMS7003;54688;52.376;16.744;2023-09-18T07:49:47;34;30;
67892;PMS7003;54688;52.376;16.744;2023-09-18T07:52:50;30;25;
67892;PMS7003;54688;52.376;16.744;2023-09-18T07:55:56;29;24;
67892;PMS7003;54688;52.376;16.744;2023-09-18T07:58:58;30;27;
67892;PMS7003;54688;52.376;16.744;2023-09-18T08:02:00;26;24;
67892;PMS7003;54688;52.376;16.744;2023-09-18T08:05:02;26;26;
67892;PMS7003;54688;52.376;16.744;2023-09-18T08:08:05;21;21;
67892;PMS7003;54688;52.376;16.744;2023-09-18T08:11:07;20;19;
67892;PMS7003;54688;52.376;16.744;2023-09-18T08:14:09;22;22;
67892;PMS7003;54688;52.376;16.744;2023-09-18T08:17:12;22;20;
67892;PMS7003;54688;52.376;16.744;2023-09-18T08:20:14;24;24;
67892;PMS7003;54688;52.376;16.744;2023-09-18T08:23:17;21;21;
67892;PMS7003;54688;52.376;16.744;2023-09-18T08:26:19;20;19;
67892;PMS7003;54688;52.376;16.744;2023-09-18T08:29:22;23;20;
67892;PMS7003;54688;52.376;16.744;2023-09-18T08:32:24;20;19;
67892;PMS7003;54688;52.376;16.744;2023-09-18T08:35:26;22;20;
67892;PMS7003;54688;52.376;16.744;2023-09-18T08:38:28;16;15;
67892;PMS7003;54688;52.376;16.744;2023-09-18T08:41:31;19;17;
67892;PMS7003;54688;52.376;16.744;2023-09-18T08:44:34;20;18;
67892;PMS7003;54688;52.376;16.744;2023-09-18T08:47:40;18;18;
67892;PMS7003;54688;52.376;16.744;2023-09-18T08:50:43;18;16;
67892;PMS7003;54688;52.376;16.744;2023-09-18T08:53:45;18;15;
67892;PMS7003;54688;52.376;16.744;2023-09-18T08:56:47;17;17;
67892;PMS7003;54688;52.376;16.744;2023-09-18T08:59:50;19;18;
67892;PMS7003;54688;52.376;16.744;2023-09-18T09:02:54;17;16;
67892;PMS7003;54688;52.376;16.744;2023-09-18T09:05:56;16;16;
67892;PMS7003;54688;52.376;16.744;2023-09-18T09:08:59;19;18;
67892;PMS7003;54688;52.376;16.744;2023-09-18T09:12:02;18;16;
67892;PMS7003;54688;52.376;16.744;2023-09-18T09:15:06;19;18;
67892;PMS7003;54688;52.376;16.744;2023-09-18T09:18:08;21;20;
67892;PMS7003;54688;52.376;16.744;2023-09-18T09:21:10;16;14;
67892;PMS7003;54688;52.376;16.744;2023-09-18T09:24:13;17;14;
67892;PMS7003;54688;52.376;16.744;2023-09-18T09:27:14;20;20;
67892;PMS7003;54688;52.376;16.744;2023-09-18T09:30:19;17;16;
67892;PMS7003;54688;52.376;16.744;2023-09-18T09:33:23;17;15;
67892;PMS7003;54688;52.376;16.744;2023-09-18T09:36:26;18;17;
67892;PMS7003;54688;52.376;16.744;2023-09-18T09:39:28;18;17;
67892;PMS7003;54688;52.376;16.744;2023-09-18T09:42:38;17;16;
67892;PMS7003;54688;52.376;16.744;2023-09-18T09:45:41;13;13;
67892;PMS7003;54688;52.376;16.744;2023-09-18T09:48:57;15;13;
67892;PMS7003;54688;52.376;16.744;2023-09-18T09:52:00;16;16;
67892;PMS7003;54688;52.376;16.744;2023-09-18T09:55:03;13;13;
67892;PMS7003;54688;52.376;16.744;2023-09-18T09:58:05;16;14;
67892;PMS7003;54688;52.376;16.744;2023-09-18T10:01:08;15;14;
67892;PMS7003;54688;52.376;16.744;2023-09-18T10:04:13;16;15;
67892;PMS7003;54688;52.376;16.744;2023-09-18T10:07:16;15;13;
67892;PMS7003;54688;52.376;16.744;2023-09-18T10:10:19;13;13;
67892;PMS7003;54688;52.376;16.744;2023-09-18T10:13:25;11;11;
67892;PMS7003;54688;52.376;16.744;2023-09-18T10:16:30;19;16;
67892;PMS7003;54688;52.376;16.744;2023-09-18T10:19:40;17;15;
67892;PMS7003;54688;52.376;16.744;2023-09-18T10:22:48;20;18;
67892;PMS7003;54688;52.376;16.744;2023-09-18T10:25:54;14;14;
67892;PMS7003;54688;52.376;16.744;2023-09-18T10:28:58;15;14;
67892;PMS7003;54688;52.376;16.744;2023-09-18T10:32:03;15;14;
67892;PMS7003;54688;52.376;16.744;2023-09-18T10:35:06;12;11;
67892;PMS7003;54688;52.376;16.744;2023-09-18T10:38:09;13;13;
67892;PMS7003;54688;52.376;16.744;2023-09-18T10:41:11;13;13;
67892;PMS7003;54688;52.376;16.744;2023-09-18T10:44:15;17;14;
67892;PMS7003;54688;52.376;16.744;2023-09-18T10:47:18;14;12;
67892;PMS7003;54688;52.376;16.744;2023-09-18T10:50:22;14;14;
67892;PMS7003;54688;52.376;16.744;2023-09-18T10:53:25;12;11;
67892;PMS7003;54688;52.376;16.744;2023-09-18T10:56:27;16;13;
67892;PMS7003;54688;52.376;16.744;2023-09-18T10:59:30;19;14;
67892;PMS7003;54688;52.376;16.744;2023-09-18T11:02:32;13;12;
67892;PMS7003;54688;52.376;16.744;2023-09-18T11:05:35;14;14;
67892;PMS7003;54688;52.376;16.744;2023-09-18T11:08:43;15;14;
67892;PMS7003;54688;52.376;16.744;2023-09-18T11:11:45;14;14;
67892;PMS7003;54688;52.376;16.744;2023-09-18T11:17:58;14;12;
67892;PMS7003;54688;52.376;16.744;2023-09-18T11:21:08;12;12;
67892;PMS7003;54688;52.376;16.744;2023-09-18T11:24:16;14;12;
67892;PMS7003;54688;52.376;16.744;2023-09-18T11:27:24;13;12;
67892;PMS7003;54688;52.376;16.744;2023-09-18T11:30:26;12;10;
67892;PMS7003;54688;52.376;16.744;2023-09-18T11:33:31;14;14;
67892;PMS7003;54688;52.376;16.744;2023-09-18T11:36:34;13;13;
67892;PMS7003;54688;52.376;16.744;2023-09-18T11:39:37;10;10;
67892;PMS7003;54688;52.376;16.744;2023-09-18T11:43:18;13;11;
67892;PMS7003;54688;52.376;16.744;2023-09-18T11:46:21;11;11;
67892;PMS7003;54688;52.376;16.744;2023-09-18T11:49:24;15;13;
67892;PMS7003;54688;52.376;16.744;2023-09-18T11:55:24;11;10;
67892;PMS7003;54688;52.376;16.744;2023-09-18T11:58:26;12;11;
67892;PMS7003;54688;52.376;16.744;2023-09-18T12:01:29;8;8;
67892;PMS7003;54688;52.376;16.744;2023-09-18T12:04:32;10;9;
67892;PMS7003;54688;52.376;16.744;2023-09-18T12:07:35;8;8;
67892;PMS7003;54688;52.376;16.744;2023-09-18T12:10:38;12;10;
67892;PMS7003;54688;52.376;16.744;2023-09-18T12:13:41;10;10;
67892;PMS7003;54688;52.376;16.744;2023-09-18T12:16:44;12;11;
67892;PMS7003;54688;52.376;16.744;2023-09-18T12:19:54;11;11;
67892;PMS7003;54688;52.376;16.744;2023-09-18T12:22:56;12;10;
67892;PMS7003;54688;52.376;16.744;2023-09-18T12:26:01;10;10;
67892;PMS7003;54688;52.376;16.744;2023-09-18T12:29:04;11;11;
67892;PMS7003;54688;52.376;16.744;2023-09-18T12:32:09;9;9;
67892;PMS7003;54688;52.376;16.744;2023-09-18T12:35:13;9;8;
67892;PMS7003;54688;52.376;16.744;2023-09-18T12:38:16;9;8;
67892;PMS7003;54688;52.376;16.744;2023-09-18T12:41:18;8;8;
67892;PMS7003;54688;52.376;16.744;2023-09-18T12:44:21;9;9;
67892;PMS7003;54688;52.376;16.744;2023-09-18T12:47:24;9;8;
67892;PMS7003;54688;52.376;16.744;2023-09-18T12:50:27;7;7;
67892;PMS7003;54688;52.376;16.744;2023-09-18T12:53:29;7;7;
67892;PMS7003;54688;52.376;16.744;2023-09-18T12:56:31;11;10;
67892;PMS7003;54688;52.376;16.744;2023-09-18T12:59:34;13;9;
67892;PMS7003;54688;52.376;16.744;2023-09-18T13:02:37;10;8;
67892;PMS7003;54688;52.376;16.744;2023-09-18T13:05:41;9;9;
67892;PMS7003;54688;52.376;16.744;2023-09-18T13:08:44;8;8;
67892;PMS7003;54688;52.376;16.744;2023-09-18T13:15:01;8;8;
67892;PMS7003;54688;52.376;16.744;2023-09-18T13:18:09;12;10;
67892;PMS7003;54688;52.376;16.744;2023-09-18T13:21:13;12;12;
67892;PMS7003;54688;52.376;16.744;2023-09-18T13:24:30;10;8;
67892;PMS7003;54688;52.376;16.744;2023-09-18T13:27:32;9;9;
67892;PMS7003;54688;52.376;16.744;2023-09-18T13:30:36;11;9;
67892;PMS7003;54688;52.376;16.744;2023-09-18T13:33:38;10;10;
67892;PMS7003;54688;52.376;16.744;2023-09-18T13:36:40;11;9;
67892;PMS7003;54688;52.376;16.744;2023-09-18T13:39:43;10;10;
67892;PMS7003;54688;52.376;16.744;2023-09-18T13:45:43;12;11;
67892;PMS7003;54688;52.376;16.744;2023-09-18T13:48:46;14;13;
67892;PMS7003;54688;52.376;16.744;2023-09-18T13:51:48;11;10;
67892;PMS7003;54688;52.376;16.744;2023-09-18T13:57:49;11;11;
67892;PMS7003;54688;52.376;16.744;2023-09-18T14:00:53;13;12;
67892;PMS7003;54688;52.376;16.744;2023-09-18T14:03:55;12;12;
67892;PMS7003;54688;52.376;16.744;2023-09-18T14:06:58;15;13;
67892;PMS7003;54688;52.376;16.744;2023-09-18T14:10:00;14;12;
67892;PMS7003;54688;52.376;16.744;2023-09-18T14:13:03;13;13;
67892;PMS7003;54688;52.376;16.744;2023-09-18T14:16:05;17;13;
67892;PMS7003;54688;52.376;16.744;2023-09-18T14:19:07;11;11;
67892;PMS7003;54688;52.376;16.744;2023-09-18T14:22:10;17;14;
67892;PMS7003;54688;52.376;16.744;2023-09-18T14:25:12;11;11;
67892;PMS7003;54688;52.376;16.744;2023-09-18T14:28:14;18;15;
67892;PMS7003;54688;52.376;16.744;2023-09-18T14:31:16;14;12;
67892;PMS7003;54688;52.376;16.744;2023-09-18T14:34:19;14;13;
67892;PMS7003;54688;52.376;16.744;2023-09-18T14:37:21;16;13;
67892;PMS7003;54688;52.376;16.744;2023-09-18T14:40:23;13;13;
67892;PMS7003;54688;52.376;16.744;2023-09-18T14:43:25;14;12;
67892;PMS7003;54688;52.376;16.744;2023-09-18T14:46:27;12;12;
67892;PMS7003;54688;52.376;16.744;2023-09-18T14:49:30;15;12;
67892;PMS7003;54688;52.376;16.744;2023-09-18T14:52:35;13;13;
67892;PMS7003;54688;52.376;16.744;2023-09-18T14:55:36;14;11;
67892;PMS7003;54688;52.376;16.744;2023-09-18T14:58:39;14;11;
67892;PMS7003;54688;52.376;16.744;2023-09-18T15:01:41;12;12;
67892;PMS7003;54688;52.376;16.744;2023-09-18T15:04:43;18;17;
67892;PMS7003;54688;52.376;16.744;2023-09-18T15:07:46;13;12;
67892;PMS7003;54688;52.376;16.744;2023-09-18T15:10:48;12;12;
67892;PMS7003;54688;52.376;16.744;2023-09-18T15:13:52;14;14;
67892;PMS7003;54688;52.376;16.744;2023-09-18T15:16:54;15;13;
67892;PMS7003;54688;52.376;16.744;2023-09-18T15:19:57;18;17;
67892;PMS7003;54688;52.376;16.744;2023-09-18T15:22:59;13;12;
67892;PMS7003;54688;52.376;16.744;2023-09-18T15:26:01;13;13;
67892;PMS7003;54688;52.376;16.744;2023-09-18T15:29:04;16;15;
67892;PMS7003;54688;52.376;16.744;2023-09-18T15:32:06;20;14;
67892;PMS7003;54688;52.376;16.744;2023-09-18T15:35:09;14;14;
67892;PMS7003;54688;52.376;16.744;2023-09-18T15:38:11;15;12;
67892;PMS7003;54688;52.376;16.744;2023-09-18T15:41:13;16;15;
67892;PMS7003;54688;52.376;16.744;2023-09-18T15:44:16;12;12;
67892;PMS7003;54688;52.376;16.744;2023-09-18T15:47:18;11;11;
67892;PMS7003;54688;52.376;16.744;2023-09-18T15:50:20;12;12;
67892;PMS7003;54688;52.376;16.744;2023-09-18T15:53:22;17;15;
67892;PMS7003;54688;52.376;16.744;2023-09-18T15:56:24;17;17;
67892;PMS7003;54688;52.376;16.744;2023-09-18T15:59:25;14;14;
67892;PMS7003;54688;52.376;16.744;2023-09-18T16:02:27;21;18;
67892;PMS7003;54688;52.376;16.744;2023-09-18T16:05:29;14;14;
67892;PMS7003;54688;52.376;16.744;2023-09-18T16:08:31;17;15;
67892;PMS7003;54688;52.376;16.744;2023-09-18T16:11:33;23;20;
67892;PMS7003;54688;52.376;16.744;2023-09-18T16:14:35;17;16;
67892;PMS7003;54688;52.376;16.744;2023-09-18T16:17:38;18;16;
67892;PMS7003;54688;52.376;16.744;2023-09-18T16:20:39;25;19;
67892;PMS7003;54688;52.376;16.744;2023-09-18T16:23:42;17;14;
67892;PMS7003;54688;52.376;16.744;2023-09-18T16:26:44;17;15;
67892;PMS7003;54688;52.376;16.744;2023-09-18T16:29:47;20;19;
67892;PMS7003;54688;52.376;16.744;2023-09-18T16:32:49;20;19;
67892;PMS7003;54688;52.376;16.744;2023-09-18T16:35:51;15;14;
67892;PMS7003;54688;52.376;16.744;2023-09-18T16:38:53;18;16;
67892;PMS7003;54688;52.376;16.744;2023-09-18T16:41:55;18;15;
67892;PMS7003;54688;52.376;16.744;2023-09-18T16:44:57;18;16;
67892;PMS7003;54688;52.376;16.744;2023-09-18T16:47:59;26;21;
67892;PMS7003;54688;52.376;16.744;2023-09-18T16:51:02;16;16;
67892;PMS7003;54688;52.376;16.744;2023-09-18T16:54:05;18;15;
67892;PMS7003;54688;52.376;16.744;2023-09-18T16:57:07;15;14;
67892;PMS7003;54688;52.376;16.744;2023-09-18T17:00:10;17;16;
67892;PMS7003;54688;52.376;16.744;2023-09-18T17:03:12;16;14;
67892;PMS7003;54688;52.376;16.744;2023-09-18T17:06:14;22;20;
67892;PMS7003;54688;52.376;16.744;2023-09-18T17:09:16;17;17;
67892;PMS7003;54688;52.376;16.744;2023-09-18T17:12:19;25;23;
67892;PMS7003;54688;52.376;16.744;2023-09-18T17:15:21;18;18;
67892;PMS7003;54688;52.376;16.744;2023-09-18T17:18:24;22;19;
67892;PMS7003;54688;52.376;16.744;2023-09-18T17:21:26;16;16;
67892;PMS7003;54688;52.376;16.744;2023-09-18T17:24:28;17;13;
67892;PMS7003;54688;52.376;16.744;2023-09-18T17:27:30;15;15;
67892;PMS7003;54688;52.376;16.744;2023-09-18T17:30:33;20;17;
67892;PMS7003;54688;52.376;16.744;2023-09-18T17:33:35;17;17;
67892;PMS7003;54688;52.376;16.744;2023-09-18T17:36:38;19;15;
67892;PMS7003;54688;52.376;16.744;2023-09-18T17:39:41;14;13;
67892;PMS7003;54688;52.376;16.744;2023-09-18T17:42:43;20;19;
67892;PMS7003;54688;52.376;16.744;2023-09-18T17:45:45;18;17;
67892;PMS7003;54688;52.376;16.744;2023-09-18T17:48:47;14;13;
67892;PMS7003;54688;52.376;16.744;2023-09-18T17:51:49;15;15;
67892;PMS7003;54688;52.376;16.744;2023-09-18T17:54:51;15;15;
67892;PMS7003;54688;52.376;16.744;2023-09-18T17:57:53;12;12;
67892;PMS7003;54688;52.376;16.744;2023-09-18T18:00:55;15;14;
67892;PMS7003;54688;52.376;16.744;2023-09-18T18:03:57;12;12;
67892;PMS7003;54688;52.376;16.744;2023-09-18T18:06:59;15;15;
67892;PMS7003;54688;52.376;16.744;2023-09-18T18:10:00;13;13;
67892;PMS7003;54688;52.376;16.744;2023-09-18T18:13:03;22;16;
67892;PMS7003;54688;52.376;16.744;2023-09-18T18:16:05;12;12;
67892;PMS7003;54688;52.376;16.744;2023-09-18T18:19:08;14;14;
67892;PMS7003;54688;52.376;16.744;2023-09-18T18:22:10;16;13;
67892;PMS7003;54688;52.376;16.744;2023-09-18T18:25:12;15;13;
67892;PMS7003;54688;52.376;16.744;2023-09-18T18:28:15;17;14;
67892;PMS7003;54688;52.376;16.744;2023-09-18T18:31:18;13;13;
67892;PMS7003;54688;52.376;16.744;2023-09-18T18:34:20;15;14;
67892;PMS7003;54688;52.376;16.744;2023-09-18T18:37:21;16;15;
67892;PMS7003;54688;52.376;16.744;2023-09-18T18:43:23;14;14;
67892;PMS7003;54688;52.376;16.744;2023-09-18T18:46:27;11;11;
67892;PMS7003;54688;52.376;16.744;2023-09-18T18:49:29;14;14;
67892;PMS7003;54688;52.376;16.744;2023-09-18T18:52:32;12;11;
67892;PMS7003;54688;52.376;16.744;2023-09-18T18:55:35;12;12;
67892;PMS7003;54688;52.376;16.744;2023-09-18T18:58:37;12;12;
67892;PMS7003;54688;52.376;16.744;2023-09-18T19:01:39;12;12;
67892;PMS7003;54688;52.376;16.744;2023-09-18T19:04:42;14;14;
67892;PMS7003;54688;52.376;16.744;2023-09-18T19:07:43;14;14;
67892;PMS7003;54688;52.376;16.744;2023-09-18T19:10:45;13;13;
67892;PMS7003;54688;52.376;16.744;2023-09-18T19:13:47;19;18;
67892;PMS7003;54688;52.376;16.744;2023-09-18T19:16:48;13;13;
67892;PMS7003;54688;52.376;16.744;2023-09-18T19:19:51;17;13;
67892;PMS7003;54688;52.376;16.744;2023-09-18T19:22:53;17;16;
67892;PMS7003;54688;52.376;16.744;2023-09-18T19:25:56;20;16;
67892;PMS7003;54688;52.376;16.744;2023-09-18T19:28:58;13;13;
67892;PMS7003;54688;52.376;16.744;2023-09-18T19:32:00;19;17;
67892;PMS7003;54688;52.376;16.744;2023-09-18T19:35:04;19;15;
67892;PMS7003;54688;52.376;16.744;2023-09-18T19:38:06;19;17;
67892;PMS7003;54688;52.376;16.744;2023-09-18T19:41:08;13;13;
67892;PMS7003;54688;52.376;16.744;2023-09-18T19:44:10;22;19;
67892;PMS7003;54688;52.376;16.744;2023-09-18T19:47:12;19;17;
67892;PMS7003;54688;52.376;16.744;2023-09-18T19:50:14;19;17;
67892;PMS7003;54688;52.376;16.744;2023-09-18T19:53:22;20;18;
67892;PMS7003;54688;52.376;16.744;2023-09-18T19:56:23;16;16;
67892;PMS7003;54688;52.376;16.744;2023-09-18T19:59:26;19;18;
67892;PMS7003;54688;52.376;16.744;2023-09-18T20:02:30;19;17;
67892;PMS7003;54688;52.376;16.744;2023-09-18T20:05:31;18;17;
67892;PMS7003;54688;52.376;16.744;2023-09-18T20:08:34;27;22;
67892;PMS7003;54688;52.376;16.744;2023-09-18T20:11:36;20;18;
67892;PMS7003;54688;52.376;16.744;2023-09-18T20:14:38;23;21;